Time;durP1;ratioP1;P1;durP2;ratioP2;P2;SDS_P1;SDS_P2;PMS_P1;PMS_P2;Temp;Humidity;BMP_temperature;BMP_pressure;BME280_temperature;BME280_humidity;BME280_pressure;Samples;Min_cycle;Max_cycle;Signal;HPM_P1;HPM_P2
2021/11/29 00:01:36;;;;;;;8.90;5.73;;;;;;;1.40;100.00;96664.66;4975202;28;20456;-60
2021/11/29 00:04:02;;;;;;;12.07;7.43;;;;;;;1.31;100.00;96664.81;4975928;28;20034;-59
2021/11/29 00:06:28;;;;;;;15.60;9.03;;;;;;;1.29;100.00;96674.91;4978225;28;20030;-59
2021/11/29 00:08:54;;;;;;;21.23;9.17;;;;;;;1.33;100.00;96680.75;4977087;28;20104;-61
2021/11/29 00:11:20;;;;;;;29.13;11.67;;;;;;;1.27;100.00;96684.19;4974449;28;20472;-56
2021/11/29 00:13:45;;;;;;;11.10;6.90;;;;;;;1.34;100.00;96688.31;4977334;28;20035;-60
2021/11/29 00:16:11;;;;;;;12.97;6.00;;;;;;;1.40;100.00;96687.38;4978745;28;20039;-62
2021/11/29 00:18:37;;;;;;;8.17;5.83;;;;;;;1.25;100.00;96690.13;4978558;28;20378;-61
2021/11/29 00:21:04;;;;;;;6.67;4.30;;;;;;;1.32;100.00;96686.66;4977112;28;20437;-61
2021/11/29 00:23:30;;;;;;;7.67;4.53;;;;;;;1.25;100.00;96690.13;4975340;28;20038;-59
2021/11/29 00:25:55;;;;;;;16.23;7.93;;;;;;;1.18;100.00;96689.38;4975436;28;20080;-61
2021/11/29 00:28:21;;;;;;;23.87;9.50;;;;;;;1.16;100.00;96702.88;4977114;28;20248;-61
2021/11/29 00:30:46;;;;;;;6.80;3.80;;;;;;;1.16;100.00;96700.34;4976482;28;20069;-60
2021/11/29 00:33:13;;;;;;;5.27;3.70;;;;;;;1.22;100.00;96697.75;4975303;28;20038;-61
2021/11/29 00:35:40;;;;;;;7.93;4.13;;;;;;;1.22;100.00;96691.00;4976613;28;20437;-59
2021/11/29 00:38:06;;;;;;;6.30;4.30;;;;;;;1.22;100.00;96695.22;4978924;28;20034;-61
2021/11/29 00:40:32;;;;;;;5.63;3.43;;;;;;;1.17;100.00;96695.28;4974844;28;20042;-60
2021/11/29 00:42:58;;;;;;;4.57;4.07;;;;;;;1.20;100.00;96696.91;4976643;28;20065;-61
2021/11/29 00:45:24;;;;;;;5.60;3.93;;;;;;;1.18;100.00;96696.13;4975779;28;20050;-61
2021/11/29 00:47:49;;;;;;;6.73;4.20;;;;;;;1.19;100.00;96703.66;4978753;28;20061;-60
2021/11/29 00:50:17;;;;;;;7.37;4.80;;;;;;;1.24;100.00;96706.13;4969673;28;20119;-60
2021/11/29 00:52:44;;;;;;;5.07;3.90;;;;;;;1.25;100.00;96712.84;4975015;28;20066;-60
2021/11/29 00:55:11;;;;;;;3.57;3.03;;;;;;;1.28;100.00;96717.84;4977255;28;20090;-59
2021/11/29 00:57:37;;;;;;;5.17;3.90;;;;;;;1.24;100.00;96706.13;4977736;28;20039;-61
2021/11/29 01:00:10;;;;;;;6.93;2.90;;;;;;;1.27;100.00;96711.94;4974064;28;20098;-59
2021/11/29 01:02:36;;;;;;;3.83;2.90;;;;;;;1.25;100.00;96716.19;4974466;28;20031;-58
2021/11/29 01:05:02;;;;;;;4.97;3.07;;;;;;;1.30;100.00;96718.66;4988767;28;20105;-57
2021/11/29 01:07:28;;;;;;;5.40;3.33;;;;;;;1.30;100.00;96721.19;4975862;28;20132;-58
2021/11/29 01:09:53;;;;;;;3.43;2.60;;;;;;;1.27;100.00;96721.25;4975411;28;20043;-58
2021/11/29 01:12:19;;;;;;;5.47;3.00;;;;;;;1.31;100.00;96718.66;4974729;28;20121;-59
2021/11/29 01:14:44;;;;;;;3.13;2.67;;;;;;;1.27;100.00;96724.56;4973891;28;20038;-58
2021/11/29 01:17:11;;;;;;;3.93;3.30;;;;;;;1.28;100.00;96732.97;4975411;28;20035;-57
2021/11/29 01:19:37;;;;;;;5.50;2.60;;;;;;;1.26;100.00;96733.03;4978377;28;20030;-58
2021/11/29 01:22:03;;;;;;;4.93;3.20;;;;;;;1.30;100.00;96738.84;4981568;28;20034;-58
2021/11/29 01:24:28;;;;;;;3.43;2.73;;;;;;;1.27;100.00;96738.91;4978417;28;20022;-58
2021/11/29 01:26:54;;;;;;;4.30;2.77;;;;;;;1.25;100.00;96748.16;4980114;28;20061;-59
2021/11/29 01:29:20;;;;;;;4.70;3.00;;;;;;;1.24;100.00;96746.50;4979224;28;20106;-57
2021/11/29 01:31:46;;;;;;;4.60;2.70;;;;;;;1.23;100.00;96752.41;4981273;28;20041;-58
2021/11/29 01:34:12;;;;;;;5.87;3.63;;;;;;;1.23;100.00;96758.28;4980502;28;20390;-60
2021/11/29 01:36:38;;;;;;;4.37;2.90;;;;;;;1.27;100.00;96761.63;4979949;28;20406;-61
2021/11/29 01:39:04;;;;;;;4.53;3.27;;;;;;;1.32;100.00;96754.81;4976905;28;20035;-60
2021/11/29 01:41:30;;;;;;;4.20;2.43;;;;;;;1.35;100.00;96757.31;4979342;28;20034;-60
2021/11/29 01:43:55;;;;;;;4.80;3.13;;;;;;;1.37;100.00;96763.16;4978839;28;20026;-60
2021/11/29 01:46:21;;;;;;;4.77;3.30;;;;;;;1.38;100.00;96759.78;4976935;28;20053;-61
2021/11/29 01:48:46;;;;;;;6.10;3.70;;;;;;;1.39;100.00;96761.47;4977877;28;20120;-61
2021/11/29 01:51:11;;;;;;;5.43;3.43;;;;;;;1.37;100.00;96761.47;4976349;28;20033;-61
2021/11/29 01:53:38;;;;;;;5.43;4.33;;;;;;;1.44;100.00;96761.41;4978130;28;20452;-60
2021/11/29 01:56:03;;;;;;;6.57;4.13;;;;;;;1.34;100.00;96758.16;4976011;28;20433;-61
2021/11/29 01:58:32;;;;;;;8.07;4.40;;;;;;;1.48;100.00;96768.91;4978088;28;20096;-58
2021/11/29 02:01:04;;;;;;;6.70;4.30;;;;;;;1.41;100.00;96766.47;4978528;28;20404;-60
2021/11/29 02:03:30;;;;;;;7.73;4.00;;;;;;;1.37;100.00;96766.50;4980208;28;20126;-61
2021/11/29 02:05:57;;;;;;;6.30;4.63;;;;;;;1.30;100.00;96756.53;4974558;28;20046;-60
2021/11/29 02:08:23;;;;;;;8.10;5.07;;;;;;;1.35;100.00;96755.63;4977196;28;20042;-60
2021/11/29 02:10:49;;;;;;;6.73;5.03;;;;;;;1.28;100.00;96753.16;4976566;28;20117;-60
2021/11/29 02:13:17;;;;;;;7.90;5.10;;;;;;;1.27;100.00;96749.81;4978182;28;20555;-60
2021/11/29 02:15:43;;;;;;;8.80;5.73;;;;;;;1.28;100.00;96760.75;4976398;28;20455;-60
2021/11/29 02:18:08;;;;;;;7.30;5.07;;;;;;;1.27;100.00;96757.38;4975635;28;20042;-59
2021/11/29 02:20:35;;;;;;;6.93;5.33;;;;;;;1.22;100.00;96750.75;4977697;28;20668;-62
2021/11/29 02:23:03;;;;;;;7.27;5.33;;;;;;;1.19;100.00;96744.03;4976997;28;20080;-61
2021/11/29 02:25:29;;;;;;;8.53;5.33;;;;;;;1.21;100.00;96749.91;4977731;28;20045;-61
2021/11/29 02:27:55;;;;;;;7.80;5.57;;;;;;;1.12;100.00;96747.50;4978010;28;20034;-60
2021/11/29 02:30:23;;;;;;;8.20;5.07;;;;;;;1.12;100.00;96750.00;4975959;28;20122;-62
2021/11/29 02:32:51;;;;;;;7.40;6.50;;;;;;;1.17;100.00;96755.84;4977744;28;20034;-59
2021/11/29 02:35:16;;;;;;;7.47;5.23;;;;;;;1.16;100.00;96755.84;4977719;28;20125;-61
2021/11/29 02:37:42;;;;;;;7.60;4.83;;;;;;;1.17;100.00;96762.56;4977865;28;20110;-60
2021/11/29 02:40:08;;;;;;;7.47;4.80;;;;;;;1.14;100.00;96755.88;4977518;28;20846;-60
2021/11/29 02:42:33;;;;;;;6.03;4.77;;;;;;;1.15;100.00;96756.69;4975664;28;20053;-60
2021/11/29 02:44:59;;;;;;;8.20;5.07;;;;;;;1.20;100.00;96760.00;4981237;28;20042;-58
2021/11/29 02:47:25;;;;;;;8.40;4.80;;;;;;;1.12;100.00;96766.84;4980108;28;20124;-59
2021/11/29 02:49:50;;;;;;;7.60;5.30;;;;;;;1.17;100.00;96770.16;4975407;28;20107;-60
2021/11/29 02:52:18;;;;;;;6.90;5.73;;;;;;;1.26;100.00;96765.00;4976154;28;20035;-58
2021/11/29 02:54:44;;;;;;;6.27;4.73;;;;;;;1.20;100.00;96773.47;4976424;28;20070;-58
2021/11/29 02:57:22;;;;;;;6.27;4.10;;;;;;;1.26;100.00;96780.13;4976874;28;20027;-59
2021/11/29 02:59:47;;;;;;;6.33;4.60;;;;;;;1.23;100.00;96778.47;4977713;28;20023;-59
2021/11/29 03:02:17;;;;;;;11.03;5.93;;;;;;;1.25;100.00;96788.56;4976769;28;20430;-60
2021/11/29 03:04:43;;;;;;;6.50;5.00;;;;;;;1.23;100.00;96788.56;4976353;28;20480;-61
2021/11/29 03:07:09;;;;;;;8.10;4.73;;;;;;;1.15;100.00;96792.88;4979005;28;20023;-60
2021/11/29 03:09:35;;;;;;;7.50;4.90;;;;;;;1.20;100.00;96796.19;5010870;23;21044;-86
2021/11/29 03:12:01;;;;;;;7.23;5.13;;;;;;;1.24;100.00;96791.91;4987197;28;20041;-87
2021/11/29 03:14:26;;;;;;;5.97;4.90;;;;;;;1.19;100.00;96793.69;4986359;28;20038;-87
2021/11/29 03:16:54;;;;;;;5.80;4.47;;;;;;;1.26;100.00;96801.16;4986761;28;20029;-86
2021/11/29 03:19:20;;;;;;;8.17;5.10;;;;;;;1.14;100.00;96786.19;4988097;28;20027;-87
2021/11/29 03:21:46;;;;;;;7.90;5.27;;;;;;;1.16;100.00;96803.78;4988460;28;20517;-87
2021/11/29 03:24:11;;;;;;;7.70;4.73;;;;;;;1.13;100.00;96797.13;4986688;28;20046;-87
2021/11/29 03:26:38;;;;;;;8.90;5.67;;;;;;;1.21;100.00;96794.50;4986404;28;20057;-87
2021/11/29 03:29:10;;;;;;;12.83;5.00;;;;;;;1.17;100.00;96790.34;4986229;28;20062;-87
2021/11/29 03:31:37;;;;;;;8.07;5.60;;;;;;;1.13;100.00;96779.44;4989581;28;20093;-88
2021/11/29 03:34:04;;;;;;;8.20;5.40;;;;;;;1.14;100.00;96777.75;4990834;28;20036;-88
2021/11/29 03:36:34;;;;;;;8.00;5.23;;;;;;;1.16;100.00;96793.69;4988285;28;20069;-88
2021/11/29 03:39:03;;;;;;;9.37;5.33;;;;;;;1.13;100.00;96793.75;4986486;28;20191;-87
2021/11/29 03:41:28;;;;;;;13.80;6.87;;;;;;;1.08;100.00;96800.53;4985314;28;20057;-90
2021/11/29 03:43:54;;;;;;;8.30;5.87;;;;;;;1.05;100.00;96798.88;4983985;28;20023;-89
2021/11/29 03:46:20;;;;;;;8.17;5.43;;;;;;;1.04;100.00;96801.41;4989405;28;20514;-88
2021/11/29 03:48:46;;;;;;;9.47;6.10;;;;;;;1.01;100.00;96809.88;4986350;28;20031;-88
2021/11/29 03:51:11;;;;;;;10.67;6.17;;;;;;;1.05;100.00;96808.13;4984841;28;20829;-89
2021/11/29 03:53:37;;;;;;;8.10;5.97;;;;;;;1.08;100.00;96810.63;5000245;28;20089;-87
2021/11/29 03:56:03;;;;;;;10.90;5.97;;;;;;;1.06;100.00;96813.16;4983272;28;20039;-87
2021/11/29 03:58:29;;;;;;;9.73;5.33;;;;;;;1.06;100.00;96823.25;4984406;28;20364;-87
2021/11/29 04:00:55;;;;;;;8.03;4.80;;;;;;;1.10;100.00;96824.06;4986068;28;20047;-87
2021/11/29 04:03:20;;;;;;;9.90;5.73;;;;;;;1.06;100.00;96810.63;4990275;28;20060;-87
2021/11/29 04:05:46;;;;;;;10.73;6.17;;;;;;;1.06;100.00;96817.38;4987519;28;20030;-87
2021/11/29 04:08:12;;;;;;;9.33;6.00;;;;;;;1.12;100.00;96820.66;4984293;28;20205;-87
2021/11/29 04:10:38;;;;;;;7.73;6.03;;;;;;;1.02;100.00;96820.81;4986236;28;20069;-87
2021/11/29 04:13:03;;;;;;;10.73;6.57;;;;;;;1.09;100.00;96822.41;4983858;28;20038;-89
2021/11/29 04:15:29;;;;;;;7.07;5.90;;;;;;;1.04;100.00;96814.88;4988908;28;20317;-88
2021/11/29 04:17:55;;;;;;;8.33;5.83;;;;;;;1.06;100.00;96819.91;4987117;28;20093;-87
2021/11/29 04:20:21;;;;;;;10.40;6.03;;;;;;;1.02;100.00;96810.72;4987893;28;20054;-87
2021/11/29 04:22:47;;;;;;;11.93;5.93;;;;;;;1.02;100.00;96813.22;4984712;28;20043;-88
2021/11/29 04:25:17;;;;;;;10.03;6.40;;;;;;;1.00;100.00;96815.75;4989789;28;20047;-89
2021/11/29 04:27:43;;;;;;;8.63;5.97;;;;;;;1.00;100.00;96818.28;4982691;28;20054;-88
2021/11/29 04:30:16;;;;;;;10.40;6.30;;;;;;;1.07;100.00;96819.88;4985449;28;20027;-85
2021/11/29 04:32:42;;;;;;;8.17;5.80;;;;;;;1.10;100.00;96839.22;4987271;28;20126;-86
2021/11/29 04:35:08;;;;;;;10.73;5.87;;;;;;;1.06;100.00;96830.00;4997792;28;20027;-85
2021/11/29 04:37:34;;;;;;;9.03;5.40;;;;;;;1.12;100.00;96845.91;5003764;28;20038;-85
2021/11/29 04:40:00;;;;;;;9.20;5.87;;;;;;;1.05;100.00;96838.41;5003457;28;20033;-85
2021/11/29 04:42:26;;;;;;;8.40;5.47;;;;;;;1.10;100.00;96850.16;4984432;28;20030;-85
2021/11/29 04:44:52;;;;;;;11.10;5.27;;;;;;;1.05;100.00;96846.81;4987005;28;20034;-85
2021/11/29 04:47:17;;;;;;;11.47;5.43;;;;;;;1.06;100.00;96838.38;4988167;28;20030;-87
2021/11/29 04:49:42;;;;;;;8.00;5.90;;;;;;;1.03;100.00;96840.09;4982315;28;20027;-87
2021/11/29 04:52:09;;;;;;;7.67;5.17;;;;;;;1.13;100.00;96851.78;4986375;28;20038;-87
2021/11/29 04:54:34;;;;;;;9.13;6.47;;;;;;;1.07;100.00;96849.31;4984049;28;20046;-88
2021/11/29 04:57:00;;;;;;;10.13;5.13;;;;;;;1.06;100.00;96848.47;4980913;28;20038;-87
2021/11/29 04:59:25;;;;;;;9.50;5.43;;;;;;;1.06;100.00;96852.72;4985368;28;20438;-87
2021/11/29 05:01:51;;;;;;;7.83;5.90;;;;;;;1.14;100.00;96856.00;5000859;28;20037;-86
2021/11/29 05:04:16;;;;;;;8.57;5.50;;;;;;;1.10;100.00;96855.19;4985609;28;20034;-87
2021/11/29 05:06:42;;;;;;;7.23;5.50;;;;;;;1.13;100.00;96855.16;4984927;28;20073;-86
2021/11/29 05:09:09;;;;;;;8.07;5.03;;;;;;;1.09;100.00;96856.03;4982702;28;20387;-86
2021/11/29 05:11:35;;;;;;;10.70;5.87;;;;;;;1.06;100.00;96862.81;4982705;28;20497;-86
2021/11/29 05:14:02;;;;;;;6.67;5.27;;;;;;;1.03;100.00;96860.28;4989760;28;20493;-85
2021/11/29 05:16:30;;;;;;;8.33;5.00;;;;;;;1.11;100.00;96871.13;4983670;28;20076;-85
2021/11/29 05:18:56;;;;;;;10.97;5.63;;;;;;;1.09;100.00;96865.28;5009202;28;20062;-87
2021/11/29 05:21:22;;;;;;;8.17;5.57;;;;;;;1.03;100.00;96870.38;5002916;28;20040;-85
2021/11/29 05:23:48;;;;;;;8.50;5.47;;;;;;;1.06;100.00;96873.72;4994028;28;20042;-85
2021/11/29 05:26:19;;;;;;;8.83;5.80;;;;;;;1.04;100.00;96865.34;4993559;28;20113;-85
2021/11/29 05:28:44;;;;;;;9.47;5.77;;;;;;;1.08;100.00;96876.22;4983919;28;20069;-86
2021/11/29 05:31:10;;;;;;;6.87;5.27;;;;;;;1.08;100.00;96874.53;4999538;28;20441;-84
2021/11/29 05:33:36;;;;;;;5.97;4.77;;;;;;;1.05;100.00;96874.56;4981032;28;20385;-86
2021/11/29 05:36:01;;;;;;;8.20;4.93;;;;;;;1.05;100.00;96881.31;4985056;28;20034;-87
2021/11/29 05:38:28;;;;;;;7.43;4.67;;;;;;;1.02;100.00;96894.78;4985137;28;20495;-87
2021/11/29 05:40:53;;;;;;;5.97;5.27;;;;;;;1.09;100.00;96883.78;4995888;28;20592;-88
2021/11/29 05:43:19;;;;;;;7.50;4.57;;;;;;;1.04;100.00;96874.59;4979824;28;20030;-87
2021/11/29 05:45:44;;;;;;;7.53;4.80;;;;;;;1.09;100.00;96885.47;4981558;28;20049;-87
2021/11/29 05:48:11;;;;;;;7.20;4.40;;;;;;;1.10;100.00;96892.19;4979772;28;20040;-84
2021/11/29 05:50:37;;;;;;;4.63;3.73;;;;;;;1.06;100.00;96885.50;4981052;28;20080;-85
2021/11/29 05:53:03;;;;;;;8.27;4.57;;;;;;;1.09;100.00;96888.00;4982855;28;20062;-84
2021/11/29 05:55:29;;;;;;;8.97;4.10;;;;;;;1.06;100.00;96893.88;4981732;28;20473;-83
2021/11/29 05:57:54;;;;;;;3.93;3.30;;;;;;;1.05;100.00;96898.97;4981667;28;20039;-85
2021/11/29 06:00:20;;;;;;;6.10;3.63;;;;;;;1.03;100.00;96905.69;4982807;28;20035;-83
2021/11/29 06:02:46;;;;;;;6.43;4.13;;;;;;;1.05;100.00;96907.38;4981058;28;20396;-84
2021/11/29 06:05:13;;;;;;;3.80;3.17;;;;;;;1.05;100.00;96899.81;4999412;28;20030;-85
2021/11/29 06:07:38;;;;;;;7.97;4.73;;;;;;;1.04;100.00;96914.94;5002408;28;20035;-87
2021/11/29 06:10:05;;;;;;;5.10;3.93;;;;;;;0.96;100.00;96921.75;5001925;28;20097;-88
2021/11/29 06:12:31;;;;;;;5.53;3.87;;;;;;;1.01;100.00;96925.91;5002453;28;20033;-88
2021/11/29 06:14:56;;;;;;;5.33;3.97;;;;;;;1.06;100.00;96930.94;4994358;28;20090;-86
2021/11/29 06:17:22;;;;;;;6.57;4.00;;;;;;;1.02;100.00;96941.91;4990241;28;20054;-87
2021/11/29 06:19:48;;;;;;;7.37;4.03;;;;;;;0.96;100.00;96944.47;4988151;28;20536;-87
2021/11/29 06:22:13;;;;;;;5.90;3.60;;;;;;;0.86;100.00;96929.41;4984305;28;20512;-89
2021/11/29 06:24:39;;;;;;;7.67;4.00;;;;;;;0.93;100.00;96963.81;4986706;28;20498;-88
2021/11/29 06:27:04;;;;;;;5.93;4.23;;;;;;;0.93;100.00;96959.63;4997360;28;20086;-84
2021/11/29 06:29:30;;;;;;;4.97;3.73;;;;;;;0.89;100.00;96959.63;4999878;28;20547;-87
2021/11/29 06:31:55;;;;;;;7.17;3.53;;;;;;;0.87;100.00;96963.03;5000674;28;20065;-87
2021/11/29 06:34:20;;;;;;;5.27;4.13;;;;;;;0.87;100.00;96968.91;5002874;28;20015;-86
2021/11/29 06:36:49;;;;;;;7.27;4.43;;;;;;;0.83;100.00;96961.38;4989456;28;20041;-88
2021/11/29 06:39:15;;;;;;;6.43;4.00;;;;;;;0.87;100.00;96973.13;4995430;28;20029;-87
2021/11/29 06:41:40;;;;;;;6.93;3.87;;;;;;;0.89;100.00;96981.53;5004713;28;20066;-86
2021/11/29 06:44:06;;;;;;;5.43;3.90;;;;;;;0.88;100.00;96978.16;5006372;28;20015;-88
2021/11/29 06:46:32;;;;;;;6.67;4.43;;;;;;;0.83;100.00;96989.97;5004505;28;20060;-88
2021/11/29 06:48:58;;;;;;;5.87;4.00;;;;;;;0.88;100.00;96985.72;4984100;28;20022;-89
2021/11/29 06:51:26;;;;;;;4.93;3.50;;;;;;;0.85;100.00;96998.34;4984405;28;20614;-88
2021/11/29 06:53:51;;;;;;;7.53;3.20;;;;;;;0.86;100.00;96997.50;4985327;28;20037;-86
2021/11/29 06:56:17;;;;;;;5.87;4.10;;;;;;;0.84;100.00;96988.28;4987420;28;20030;-86
2021/11/29 06:58:43;;;;;;;6.70;3.27;;;;;;;0.88;100.00;96998.34;4986414;28;20370;-87
2021/11/29 07:01:08;;;;;;;7.73;3.63;;;;;;;0.83;100.00;96994.16;4991014;28;20085;-87
2021/11/29 07:03:35;;;;;;;6.03;3.77;;;;;;;0.87;100.00;96996.66;4990567;28;20049;-86
2021/11/29 07:06:01;;;;;;;4.60;3.50;;;;;;;0.85;100.00;97005.06;4989071;28;20404;-87
2021/11/29 07:08:27;;;;;;;4.27;2.87;;;;;;;0.97;100.00;97017.63;4985624;28;20372;-87
2021/11/29 07:10:53;;;;;;;6.37;3.33;;;;;;;0.88;100.00;97005.91;4985994;28;20501;-87
2021/11/29 07:13:18;;;;;;;3.57;3.23;;;;;;;0.93;100.00;97017.66;4988535;28;20034;-88
2021/11/29 07:15:45;;;;;;;4.53;3.67;;;;;;;0.90;100.00;97006.72;5006579;28;20081;-86
2021/11/29 07:18:11;;;;;;;4.80;3.17;;;;;;;0.98;100.00;97019.28;5003796;28;20528;-88
2021/11/29 07:20:37;;;;;;;5.40;3.13;;;;;;;0.92;100.00;97014.28;4991689;28;20030;-86
2021/11/29 07:23:04;;;;;;;8.97;4.17;;;;;;;0.95;100.00;97011.72;4986414;28;20038;-87
2021/11/29 07:25:29;;;;;;;5.37;4.23;;;;;;;0.94;100.00;97025.19;4987988;28;20098;-88
2021/11/29 07:27:55;;;;;;;5.63;4.00;;;;;;;0.97;100.00;97021.81;4989281;28;20065;-87
2021/11/29 07:30:22;;;;;;;6.47;4.30;;;;;;;1.06;100.00;97024.28;4987889;28;20085;-87
2021/11/29 07:32:49;;;;;;;5.10;3.37;;;;;;;1.04;100.00;97029.34;4986989;28;20042;-87
2021/11/29 07:35:15;;;;;;;5.10;3.70;;;;;;;1.08;100.00;97032.66;5002565;28;20034;-89
2021/11/29 07:37:42;;;;;;;4.23;3.57;;;;;;;1.13;100.00;97029.25;4984989;28;20393;-87
2021/11/29 07:40:10;;;;;;;6.80;3.67;;;;;;;1.11;100.00;97023.38;4986016;28;20207;-88
2021/11/29 07:42:35;;;;;;;6.13;3.47;;;;;;;1.20;100.00;97030.88;4988048;28;20172;-86
2021/11/29 07:45:02;;;;;;;6.53;4.20;;;;;;;1.24;100.00;97029.16;4986665;28;20030;-87
2021/11/29 07:47:27;;;;;;;6.03;3.43;;;;;;;1.28;100.00;97035.84;4986975;28;20026;-86
2021/11/29 07:49:54;;;;;;;7.53;3.97;;;;;;;1.28;100.00;97044.28;4987937;28;20033;-88
2021/11/29 07:52:19;;;;;;;6.87;4.20;;;;;;;1.37;100.00;97054.28;4985644;28;20101;-86
2021/11/29 07:54:45;;;;;;;5.00;3.50;;;;;;;1.38;100.00;97063.56;4986791;28;20077;-86
2021/11/29 07:57:13;;;;;;;5.23;3.47;;;;;;;1.54;100.00;97049.09;4985409;28;20041;-87
2021/11/29 07:59:39;;;;;;;5.73;4.43;;;;;;;1.51;100.00;97060.91;4984889;28;20118;-87
2021/11/29 08:02:05;;;;;;;4.83;3.87;;;;;;;1.53;100.00;97059.22;4986037;28;20038;-88
2021/11/29 08:04:30;;;;;;;5.53;4.00;;;;;;;1.52;100.00;97072.69;5001087;28;20026;-86
2021/11/29 08:06:56;;;;;;;6.60;4.10;;;;;;;1.53;100.00;97064.28;4985393;28;20161;-87
2021/11/29 08:09:21;;;;;;;5.53;3.90;;;;;;;1.65;100.00;97064.16;4985170;28;20058;-86
2021/11/29 08:11:47;;;;;;;6.93;3.90;;;;;;;1.68;100.00;97070.03;4985147;28;20030;-86
2021/11/29 08:14:12;;;;;;;6.10;4.07;;;;;;;1.75;100.00;97069.09;4984718;28;20544;-85
2021/11/29 08:16:38;;;;;;;7.10;4.57;;;;;;;1.86;100.00;97063.13;4983605;28;20066;-87
2021/11/29 08:19:04;;;;;;;5.40;4.53;;;;;;;1.88;100.00;97059.72;4984597;28;20117;-87
2021/11/29 08:21:29;;;;;;;8.27;4.00;;;;;;;1.93;100.00;97072.31;4990192;28;20030;-87
2021/11/29 08:23:54;;;;;;;6.60;3.50;;;;;;;2.02;100.00;97079.78;5000894;28;20053;-86
2021/11/29 08:53:23;;;;;;;8.33;5.20;;;;;;;2.13;100.00;97113.38;5044173;28;20116;-87
2021/11/29 08:55:49;;;;;;;11.33;5.53;;;;;;;2.06;100.00;97120.19;5024090;28;20077;-87
2021/11/29 08:58:14;;;;;;;6.43;5.03;;;;;;;2.00;100.00;97125.28;5025738;28;20074;-87
2021/11/29 09:00:42;;;;;;;8.97;5.40;;;;;;;1.97;100.00;97124.47;5022585;28;20487;-88
2021/11/29 09:03:09;;;;;;;8.40;5.77;;;;;;;2.07;100.00;97137.03;5068207;22;20060;-62
2021/11/29 09:05:38;;;;;;;8.70;7.13;;;;;;;2.04;100.00;97131.97;5063807;28;20091;-60
2021/11/29 09:08:04;;;;;;;9.60;5.40;;;;;;;2.20;100.00;97140.28;5064235;28;20048;-61
2021/11/29 09:10:30;;;;;;;11.70;5.67;;;;;;;2.33;100.00;97136.75;5065977;28;20373;-58
2021/11/29 09:12:55;;;;;;;8.87;5.47;;;;;;;2.35;100.00;97139.25;5068282;28;20041;-56
2021/11/29 09:15:21;;;;;;;10.83;5.97;;;;;;;2.42;100.00;97138.34;5065419;28;20056;-58
2021/11/29 09:17:48;;;;;;;9.80;5.83;;;;;;;2.34;100.00;97146.00;5064967;28;20036;-57
2021/11/29 09:20:17;;;;;;;10.50;6.13;;;;;;;2.38;100.00;97140.06;5068737;28;20094;-56
2021/11/29 09:22:44;;;;;;;8.17;6.37;;;;;;;2.39;100.00;97145.94;5068595;28;20103;-59
2021/11/29 09:25:11;;;;;;;7.67;5.37;;;;;;;2.55;100.00;97144.94;5066478;28;20572;-58
2021/11/29 09:27:37;;;;;;;11.00;5.93;;;;;;;2.49;100.00;97145.00;5064553;28;20473;-53
2021/11/29 09:30:05;;;;;;;9.00;4.97;;;;;;;2.56;100.00;97149.97;5068210;28;20119;-53
2021/11/29 09:32:36;;;;;;;10.90;5.33;;;;;;;2.55;100.00;97147.44;5067400;28;20419;-54
2021/11/29 09:35:04;;;;;;;11.23;5.90;;;;;;;2.64;100.00;97143.13;5057212;28;20028;-58
2021/11/29 09:37:29;;;;;;;11.27;6.57;;;;;;;2.81;100.00;97147.16;5066172;28;20036;-58
2021/11/29 09:39:55;;;;;;;13.33;5.73;;;;;;;2.81;100.00;97153.06;5066912;28;20102;-59
2021/11/29 09:42:20;;;;;;;9.60;6.43;;;;;;;2.76;100.00;97155.63;5070279;28;20386;-58
2021/11/29 09:44:51;;;;;;;9.47;5.63;;;;;;;2.77;100.00;97153.94;5073281;28;20416;-58
2021/11/29 09:47:16;;;;;;;11.13;6.53;;;;;;;2.78;100.00;97152.25;5069407;28;20036;-55
2021/11/29 09:49:41;;;;;;;10.10;6.30;;;;;;;2.91;100.00;97159.69;5067683;28;20063;-58
2021/11/29 09:52:07;;;;;;;9.90;5.63;;;;;;;2.90;100.00;97152.09;5070600;28;20482;-58
2021/11/29 09:54:33;;;;;;;14.23;6.60;;;;;;;2.97;100.00;97162.13;5071733;28;20517;-58
2021/11/29 09:56:58;;;;;;;10.20;6.43;;;;;;;3.06;100.00;97168.75;5075574;28;20033;-59
2021/11/29 09:59:24;;;;;;;10.77;6.87;;;;;;;3.04;100.00;97162.91;5070136;28;20363;-57
2021/11/29 10:01:54;;;;;;;7.67;5.10;;;;;;;3.03;100.00;97163.75;5064757;28;20057;-56
2021/11/29 10:04:21;;;;;;;6.63;5.40;;;;;;;3.08;100.00;97157.78;5056091;28;20037;-54
2021/11/29 10:07:03;;;;;;;10.03;5.80;;;;;;;3.11;100.00;97161.94;5051364;28;20117;-57
2021/11/29 10:09:36;;;;;;;9.17;5.33;;;;;;;3.00;100.00;97163.78;5047658;28;20036;-56
2021/11/29 10:12:11;;;;;;;7.33;5.50;;;;;;;3.04;100.00;97158.69;5045242;28;20157;-59
2021/11/29 10:14:38;;;;;;;8.30;5.93;;;;;;;3.03;100.00;97153.63;5051525;28;20513;-60
2021/11/29 10:17:04;;;;;;;8.77;5.30;;;;;;;3.05;100.00;97157.81;5049627;28;20057;-59
2021/11/29 10:19:31;;;;;;;7.40;4.90;;;;;;;3.13;100.00;97162.78;5047656;28;20167;-58
2021/11/29 10:22:20;;;;;;;6.10;5.00;;;;;;;3.28;100.00;97165.09;5044125;28;20160;-60
2021/11/29 10:24:49;;;;;;;8.77;5.07;;;;;;;3.33;100.00;97167.56;5052923;28;20056;-59
2021/11/29 10:27:15;;;;;;;6.93;5.30;;;;;;;3.25;99.21;97159.22;5048793;28;20080;-58
2021/11/29 10:29:53;;;;;;;7.27;4.60;;;;;;;3.32;97.42;97164.19;5046766;28;20064;-59
2021/11/29 10:32:32;;;;;;;7.30;4.57;;;;;;;3.51;99.07;97158.00;5044436;28;20553;-56
2021/11/29 10:34:57;;;;;;;6.03;4.30;;;;;;;3.36;98.63;97162.44;5049201;28;20064;-57
2021/11/29 10:37:28;;;;;;;8.03;5.23;;;;;;;3.52;97.89;97159.66;5046078;28;20465;-58
2021/11/29 10:39:53;;;;;;;7.03;4.27;;;;;;;3.39;97.06;97163.25;5046355;28;20116;-58
2021/11/29 10:42:24;;;;;;;5.83;4.33;;;;;;;3.32;98.10;97166.72;5043458;28;20039;-55
2021/11/29 10:44:53;;;;;;;6.83;4.60;;;;;;;3.34;96.17;97162.47;5045765;28;20021;-56
2021/11/29 10:47:20;;;;;;;6.73;5.33;;;;;;;3.45;98.93;97170.75;5047855;28;20040;-55
2021/11/29 10:49:51;;;;;;;6.43;4.30;;;;;;;3.34;95.42;97175.16;5046143;28;20033;-55
2021/11/29 10:52:21;;;;;;;6.43;4.20;;;;;;;3.14;91.98;97165.28;5048902;28;20318;-56
2021/11/29 10:54:47;;;;;;;7.10;4.63;;;;;;;3.29;96.49;97173.53;5045111;28;20032;-57
2021/11/29 10:57:14;;;;;;;6.33;4.57;;;;;;;3.32;98.01;97170.94;5044818;28;20520;-59
2021/11/29 10:59:43;;;;;;;8.03;4.80;;;;;;;3.33;96.39;97180.22;5045629;28;20041;-59
2021/11/29 11:02:14;;;;;;;7.00;4.47;;;;;;;3.34;97.02;97174.31;5046621;28;20049;-59
2021/11/29 11:04:43;;;;;;;4.03;3.63;;;;;;;3.23;93.64;97182.88;5045401;28;20040;-58
2021/11/29 11:07:13;;;;;;;6.63;4.03;;;;;;;3.34;96.14;97165.00;5045294;28;20072;-60
2021/11/29 11:09:41;;;;;;;4.90;4.33;;;;;;;3.36;92.86;97192.84;5047478;28;20037;-60
2021/11/29 11:12:10;;;;;;;5.53;3.90;;;;;;;3.36;94.78;97193.66;5049802;28;20072;-61
2021/11/29 11:14:42;;;;;;;6.60;4.47;;;;;;;3.37;94.78;97185.22;5046047;28;20091;-57
2021/11/29 11:17:10;;;;;;;5.30;3.63;;;;;;;3.35;93.93;97186.13;5046505;28;20326;-59
2021/11/29 11:19:40;;;;;;;7.47;4.57;;;;;;;3.39;95.85;97181.00;5050443;28;20033;-61
2021/11/29 11:22:29;;;;;;;6.53;5.40;;;;;;;3.36;95.16;97178.47;5051070;28;20098;-59
2021/11/29 11:25:08;;;;;;;6.13;4.63;;;;;;;3.31;95.99;97185.28;5044460;28;20052;-60
2021/11/29 11:27:58;;;;;;;6.30;4.33;;;;;;;3.21;97.08;97191.38;5043884;28;20215;-61
2021/11/29 11:30:26;;;;;;;6.03;3.67;;;;;;;3.18;98.90;97192.22;5047990;28;20043;-59
2021/11/29 11:33:02;;;;;;;6.13;4.07;;;;;;;3.26;97.15;97197.22;5048205;28;20043;-57
2021/11/29 11:35:36;;;;;;;6.50;4.37;;;;;;;3.28;97.52;97205.59;5043285;28;20044;-57
2021/11/29 11:38:05;;;;;;;6.33;4.37;;;;;;;3.40;99.33;97202.91;5036020;28;20394;-58
2021/11/29 11:40:34;;;;;;;7.73;5.33;;;;;;;3.42;99.70;97218.09;5048727;28;20037;-57
2021/11/29 11:43:02;;;;;;;6.00;4.27;;;;;;;3.46;95.53;97212.97;5047416;28;20073;-57
2021/11/29 11:45:33;;;;;;;6.33;4.27;;;;;;;3.41;92.79;97222.31;5026219;28;20056;-58
2021/11/29 11:48:00;;;;;;;5.23;3.47;;;;;;;3.31;93.46;97220.75;5044258;28;20092;-56
2021/11/29 11:50:30;;;;;;;7.03;4.20;;;;;;;3.40;91.48;97209.66;5048325;28;20556;-56
2021/11/29 11:52:59;;;;;;;7.00;6.03;;;;;;;3.15;91.25;97211.69;5045993;28;20056;-55
2021/11/29 11:55:32;;;;;;;6.27;4.77;;;;;;;3.49;93.52;97217.13;5045828;28;20044;-57
2021/11/29 11:57:59;;;;;;;5.07;4.13;;;;;;;3.25;91.18;97215.78;5047895;28;20040;-54
2021/11/29 12:00:30;;;;;;;6.00;4.70;;;;;;;3.20;92.05;97227.66;5048658;28;20033;-55